No particular awareness of the weather is required.    There are no Weather-warnings


Meteo18 Weather Cam more information Meteo18 Weather Cam


Thunder radar more information blitzortung!


Rain radar more information rain snow radar


Visit our other weather sites:

Template documentation
and downloads

And another site



Weather Underground History page Text

Daily Summary for May 6, 2017 Units:  Metric    English   Both
« Previous Day
Next Day »
Daily Weekly Monthly Yearly Custom
  High: Low: Average:
Temperature: 15.7 °C 10.8 °C 13 °C
Dew Point: 12.5 °C 7.5 °C 10 °C
Humidity: 95 % 67 % 83 %
Wind Speed: 30.6 km/h 0.0 km/h 8.8 km/h
Wind Gust: 41.8 km/h - -
Wind:- - SSW
Pressure: 1015.8 hPa 1007.0 hPa -
Precipitation: 4.3 mm    
Historical Graphs
 
 
Tabular Data for May 6, 2017
Time Temperature Dew Point Pressure Wind Wind Speed Wind Gust Humidity Rainfall Rate (Hourly)
00:02 13.3 °C 7.5 °C 1009.0 hPa NNE 4.8 km/h 11.3 km/h 68 % 0.0 mm
00:07 13.4 °C 7.6 °C 1009.0 hPa NE 4.8 km/h 11.3 km/h 68 % 0.0 mm
00:12 13.5 °C 7.5 °C 1009.0 hPa NE 4.8 km/h 11.3 km/h 67 % 0.0 mm
00:17 13.6 °C 7.6 °C 1009.0 hPa NNE 8.0 km/h 8.0 km/h 67 % 0.0 mm
00:22 13.5 °C 7.5 °C 1008.7 hPa NE 8.0 km/h 9.7 km/h 67 % 0.0 mm
00:27 13.4 °C 7.6 °C 1009.0 hPa NE 4.8 km/h 12.9 km/h 68 % 0.0 mm
00:32 13.3 °C 7.5 °C 1008.7 hPa NE 3.2 km/h 12.9 km/h 68 % 0.0 mm
00:42 13.1 °C 7.5 °C 1008.7 hPa NE 6.4 km/h 11.3 km/h 69 % 0.0 mm
00:47 12.9 °C 7.6 °C 1008.7 hPa NE 6.4 km/h 11.3 km/h 70 % 0.0 mm
00:52 13.0 °C 7.7 °C 1008.7 hPa NE 4.8 km/h 11.3 km/h 70 % 0.0 mm
00:57 13.0 °C 7.7 °C 1008.7 hPa NE 3.2 km/h 8.0 km/h 70 % 0.0 mm
01:02 13.0 °C 7.7 °C 1008.7 hPa NNE 4.8 km/h 8.0 km/h 70 % 0.0 mm
01:07 12.9 °C 7.6 °C 1008.7 hPa NNE 6.4 km/h 9.7 km/h 70 % 0.0 mm
01:12 13.1 °C 7.8 °C 1008.7 hPa NE 9.7 km/h 9.7 km/h 70 % 0.0 mm
01:17 13.0 °C 7.9 °C 1008.7 hPa North 3.2 km/h 9.7 km/h 71 % 0.0 mm
01:22 12.9 °C 7.8 °C 1008.4 hPa NNE 4.8 km/h 9.7 km/h 71 % 0.0 mm
01:27 12.8 °C 7.9 °C 1008.7 hPa North 3.2 km/h 9.7 km/h 72 % 0.0 mm
01:32 12.7 °C 7.8 °C 1008.7 hPa Calm   6.4 km/h 72 % 0.0 mm
01:37 12.8 °C 7.9 °C 1008.7 hPa Calm   4.8 km/h 72 % 0.0 mm
01:42 12.8 °C 7.7 °C 1008.7 hPa Calm   4.8 km/h 71 % 0.0 mm
01:47 12.9 °C 7.8 °C 1008.7 hPa Calm   1.6 km/h 71 % 0.0 mm
01:52 12.9 °C 7.8 °C 1008.7 hPa Calm   1.6 km/h 71 % 0.0 mm
01:57 13.0 °C 7.9 °C 1008.4 hPa North 1.6 km/h 3.2 km/h 71 % 0.0 mm
02:02 12.9 °C 7.8 °C 1008.4 hPa Calm   3.2 km/h 71 % 0.0 mm
02:07 12.9 °C 7.8 °C 1008.4 hPa NNE 3.2 km/h 3.2 km/h 71 % 0.0 mm
02:12 12.9 °C 8.0 °C 1008.4 hPa NE 4.8 km/h 4.8 km/h 72 % 0.0 mm
02:17 13.1 °C 8.0 °C 1008.0 hPa NE 4.8 km/h 6.4 km/h 71 % 0.0 mm
02:22 13.0 °C 8.1 °C 1008.0 hPa NE 8.0 km/h 8.0 km/h 72 % 0.0 mm
02:27 12.9 °C 8.0 °C 1008.0 hPa NE 8.0 km/h 9.7 km/h 72 % 0.0 mm
02:32 12.8 °C 7.9 °C 1008.0 hPa NE 3.2 km/h 9.7 km/h 72 % 0.0 mm
02:37 12.8 °C 8.1 °C 1007.7 hPa NE 6.4 km/h 9.7 km/h 73 % 0.0 mm
02:42 12.8 °C 8.1 °C 1007.7 hPa NE 4.8 km/h 9.7 km/h 73 % 0.0 mm
02:47 12.8 °C 8.1 °C 1007.7 hPa NE 8.0 km/h 9.7 km/h 73 % 0.0 mm
02:52 12.8 °C 8.3 °C 1007.7 hPa Calm   9.7 km/h 74 % 0.0 mm
02:57 12.7 °C 8.2 °C 1008.0 hPa ENE 1.6 km/h 9.7 km/h 74 % 0.0 mm
03:02 12.6 °C 8.1 °C 1008.0 hPa East 1.6 km/h 9.7 km/h 74 % 0.0 mm
03:07 12.5 °C 8.2 °C 1008.0 hPa East 3.2 km/h 4.8 km/h 75 % 0.0 mm
03:12 12.4 °C 8.1 °C 1007.7 hPa ENE 3.2 km/h 4.8 km/h 75 % 0.0 mm
03:17 12.3 °C 8.0 °C 1007.7 hPa Calm   4.8 km/h 75 % 0.0 mm
03:22 12.3 °C 8.2 °C 1007.7 hPa Calm   4.8 km/h 76 % 0.0 mm
03:27 12.3 °C 8.2 °C 1007.7 hPa Calm   3.2 km/h 76 % 0.0 mm
03:32 12.3 °C 8.0 °C 1007.7 hPa Calm   1.6 km/h 75 % 0.0 mm
03:37 12.4 °C 8.1 °C 1007.7 hPa Calm   1.6 km/h 75 % 0.0 mm
03:42 12.4 °C 8.1 °C 1007.3 hPa Calm   1.6 km/h 75 % 0.0 mm
03:47 12.3 °C 8.6 °C 1007.7 hPa Calm   1.6 km/h 78 % 0.0 mm
03:52 12.1 °C 8.8 °C 1007.7 hPa Calm   1.6 km/h 80 % 0.0 mm
03:57 12.0 °C 8.7 °C 1007.3 hPa Calm   1.6 km/h 80 % 0.0 mm
04:02 11.9 °C 8.4 °C 1007.3 hPa WNW 1.6 km/h 1.6 km/h 79 % 0.0 mm
04:07 11.8 °C 8.5 °C 1007.3 hPa Calm   3.2 km/h 80 % 0.0 mm
04:12 11.9 °C 8.7 °C 1007.3 hPa Calm   3.2 km/h 81 % 0.0 mm
04:17 11.8 °C 8.8 °C 1007.3 hPa Calm   3.2 km/h 82 % 0.0 mm
04:22 11.6 °C 8.8 °C 1007.3 hPa Calm   3.2 km/h 83 % 0.0 mm
04:27 11.8 °C 8.6 °C 1007.3 hPa Calm   3.2 km/h 81 % 0.0 mm
04:32 11.9 °C 8.7 °C 1007.3 hPa Calm   1.6 km/h 81 % 0.0 mm
04:37 11.9 °C 8.7 °C 1007.3 hPa Calm   1.6 km/h 81 % 0.0 mm
04:42 11.8 °C 8.8 °C 1007.3 hPa Calm   1.6 km/h 82 % 0.0 mm
04:47 11.7 °C 8.9 °C 1007.3 hPa Calm   1.6 km/h 83 % 0.0 mm
04:52 11.7 °C 8.9 °C 1007.3 hPa Calm   1.6 km/h 83 % 0.0 mm
04:57 11.7 °C 8.9 °C 1007.3 hPa Calm   1.6 km/h 83 % 0.0 mm
05:02 11.5 °C 8.9 °C 1007.0 hPa SSW 1.6 km/h 1.6 km/h 84 % 0.0 mm
05:07 11.4 °C 9.0 °C 1007.0 hPa Calm   1.6 km/h 85 % 0.0 mm
05:12 11.3 °C 9.0 °C 1007.3 hPa Calm   1.6 km/h 86 % 0.0 mm
05:17 11.2 °C 8.9 °C 1007.3 hPa Calm   1.6 km/h 86 % 0.0 mm
05:22 11.2 °C 8.9 °C 1007.3 hPa Calm   1.6 km/h 86 % 0.0 mm
05:32 11.2 °C 8.9 °C 1007.3 hPa Calm   1.6 km/h 86 % 0.0 mm
05:37 11.2 °C 8.8 °C 1007.3 hPa Calm   1.6 km/h 85 % 0.0 mm
05:42 11.2 °C 8.8 °C 1007.3 hPa Calm   1.6 km/h 85 % 0.0 mm
05:47 11.2 °C 8.8 °C 1007.3 hPa Calm   1.6 km/h 85 % 0.0 mm
05:52 11.2 °C 8.8 °C 1007.3 hPa Calm   1.6 km/h 85 % 0.0 mm
05:57 11.2 °C 8.9 °C 1007.3 hPa Calm   1.6 km/h 86 % 0.0 mm
06:02 10.9 °C 8.6 °C 1007.7 hPa Calm   1.6 km/h 86 % 0.0 mm
06:07 10.8 °C 8.9 °C 1007.7 hPa Calm   1.6 km/h 88 % 0.0 mm
06:12 10.8 °C 8.9 °C 1007.3 hPa Calm   1.6 km/h 88 % 0.0 mm
06:17 10.9 °C 9.0 °C 1007.3 hPa Calm   1.6 km/h 88 % 0.0 mm
06:27 11.2 °C 9.1 °C 1007.3 hPa Calm   1.6 km/h 87 % 0.0 mm
06:32 11.1 °C 9.0 °C 1007.7 hPa Calm   1.6 km/h 87 % 0.0 mm
06:47 11.0 °C 9.3 °C 1008.0 hPa SW 3.2 km/h 4.8 km/h 89 % 0.3 mm
06:52 11.0 °C 9.3 °C 1008.0 hPa Calm   4.8 km/h 89 % 0.5 mm
06:57 11.0 °C 9.3 °C 1008.0 hPa SW 3.2 km/h 4.8 km/h 89 % 0.5 mm
07:02 11.2 °C 9.6 °C 1008.0 hPa WSW 6.4 km/h 6.4 km/h 90 % 0.5 mm
07:07 11.4 °C 9.8 °C 1008.0 hPa SW 4.8 km/h 9.7 km/h 90 % 0.8 mm
07:12 11.4 °C 9.8 °C 1008.0 hPa SSW 4.8 km/h 9.7 km/h 90 % 1.0 mm
07:17 11.3 °C 9.7 °C 1008.0 hPa SW 1.6 km/h 9.7 km/h 90 % 1.5 mm
07:22 11.2 °C 9.8 °C 1008.0 hPa SW 1.6 km/h 9.7 km/h 91 % 1.5 mm
07:27 11.1 °C 9.8 °C 1008.0 hPa SSW 3.2 km/h 8.0 km/h 92 % 1.5 mm
07:32 11.1 °C 9.8 °C 1008.0 hPa SW 3.2 km/h 4.8 km/h 92 % 1.5 mm
07:37 11.1 °C 10.0 °C 1008.4 hPa SSW 1.6 km/h 4.8 km/h 93 % 1.5 mm
07:42 11.2 °C 10.1 °C 1008.4 hPa SW 4.8 km/h 4.8 km/h 93 % 1.5 mm
07:47 11.2 °C 10.1 °C 1008.4 hPa Calm   4.8 km/h 93 % 1.5 mm
07:52 11.3 °C 10.2 °C 1008.0 hPa SSW 1.6 km/h 4.8 km/h 93 % 1.3 mm
07:57 11.3 °C 10.2 °C 1008.4 hPa SSW 3.2 km/h 4.8 km/h 93 % 1.5 mm
08:02 11.3 °C 10.2 °C 1008.4 hPa SSW 1.6 km/h 4.8 km/h 93 % 1.5 mm
08:07 11.3 °C 10.2 °C 1008.4 hPa SW 1.6 km/h 6.4 km/h 93 % 1.5 mm
08:17 11.3 °C 10.4 °C 1008.4 hPa SSW 3.2 km/h 6.4 km/h 94 % 1.0 mm
08:22 11.3 °C 10.4 °C 1008.4 hPa SW 3.2 km/h 4.8 km/h 94 % 1.0 mm
08:32 11.3 °C 10.4 °C 1008.4 hPa SSW 6.4 km/h 9.7 km/h 94 % 1.0 mm
08:37 11.3 °C 10.4 °C 1008.4 hPa South 3.2 km/h 9.7 km/h 94 % 1.0 mm
08:42 11.3 °C 10.4 °C 1008.4 hPa South 4.8 km/h 9.7 km/h 94 % 0.8 mm
08:47 11.3 °C 10.4 °C 1008.4 hPa SSW 4.8 km/h 8.0 km/h 94 % 0.8 mm
08:52 11.3 °C 10.4 °C 1008.4 hPa South 9.7 km/h 9.7 km/h 94 % 0.8 mm
08:57 11.3 °C 10.2 °C 1008.4 hPa SW 11.3 km/h 16.1 km/h 93 % 0.5 mm
09:02 11.3 °C 10.2 °C 1008.4 hPa SSW 4.8 km/h 16.1 km/h 93 % 0.3 mm
09:07 11.3 °C 10.2 °C 1008.4 hPa SSW 4.8 km/h 16.1 km/h 93 % 0.3 mm
09:12 11.3 °C 10.4 °C 1008.0 hPa SSW 6.4 km/h 14.5 km/h 94 % 0.3 mm
09:17 11.3 °C 10.4 °C 1008.0 hPa SSW 3.2 km/h 12.9 km/h 94 % 0.3 mm
09:22 11.3 °C 10.4 °C 1008.0 hPa SW 6.4 km/h 14.5 km/h 94 % 0.3 mm
09:27 11.4 °C 10.5 °C 1008.0 hPa SSW 4.8 km/h 14.5 km/h 94 % 0.3 mm
09:32 11.5 °C 10.6 °C 1008.0 hPa South 8.0 km/h 14.5 km/h 94 % 0.3 mm
09:37 11.4 °C 10.5 °C 1007.7 hPa SW 11.3 km/h 12.9 km/h 94 % 0.3 mm
09:42 11.3 °C 10.4 °C 1007.7 hPa SSW 6.4 km/h 12.9 km/h 94 % 0.3 mm
09:47 11.3 °C 10.4 °C 1008.0 hPa SSW 4.8 km/h 14.5 km/h 94 % 0.3 mm
09:52 11.4 °C 10.6 °C 1008.0 hPa SW 6.4 km/h 14.5 km/h 95 % 0.3 mm
09:57 11.4 °C 10.5 °C 1008.0 hPa SSW 3.2 km/h 11.3 km/h 94 % 0.3 mm
10:02 11.4 °C 10.5 °C 1008.0 hPa SE 9.7 km/h 11.3 km/h 94 % 0.0 mm
10:07 11.4 °C 10.6 °C 1008.0 hPa SSW 6.4 km/h 14.5 km/h 95 % 0.0 mm
10:17 11.4 °C 10.5 °C 1008.0 hPa SSW 11.3 km/h 16.1 km/h 94 % 0.0 mm
10:22 11.4 °C 10.5 °C 1008.0 hPa SW 6.4 km/h 16.1 km/h 94 % 0.0 mm
10:27 11.5 °C 10.6 °C 1008.0 hPa South 11.3 km/h 16.1 km/h 94 % 0.0 mm
10:32 11.5 °C 10.6 °C 1008.0 hPa SSW 8.0 km/h 16.1 km/h 94 % 0.0 mm
10:37 11.6 °C 10.7 °C 1008.0 hPa SSW 11.3 km/h 16.1 km/h 94 % 0.0 mm
10:42 11.6 °C 10.7 °C 1008.4 hPa SW 12.9 km/h 16.1 km/h 94 % 0.0 mm
10:47 11.6 °C 10.7 °C 1008.4 hPa SW 11.3 km/h 16.1 km/h 94 % 0.0 mm
10:52 11.7 °C 10.9 °C 1008.4 hPa SSW 8.0 km/h 16.1 km/h 95 % 0.0 mm
10:57 11.7 °C 10.9 °C 1008.4 hPa SSW 8.0 km/h 16.1 km/h 95 % 0.0 mm
11:02 11.8 °C 11.0 °C 1008.4 hPa South 4.8 km/h 16.1 km/h 95 % 0.0 mm
11:07 11.9 °C 11.1 °C 1008.4 hPa SW 9.7 km/h 16.1 km/h 95 % 0.0 mm
11:17 12.3 °C 11.5 °C 1008.4 hPa SSW 3.2 km/h 12.9 km/h 95 % 0.0 mm
11:22 12.4 °C 11.6 °C 1008.4 hPa SSE 8.0 km/h 12.9 km/h 95 % 0.0 mm
11:27 12.6 °C 11.8 °C 1008.4 hPa SSW 8.0 km/h 14.5 km/h 95 % 0.0 mm
11:32 12.6 °C 11.8 °C 1008.4 hPa WSW 8.0 km/h 14.5 km/h 95 % 0.0 mm
11:37 12.7 °C 11.8 °C 1008.4 hPa WSW 14.5 km/h 14.5 km/h 94 % 0.0 mm
11:42 12.8 °C 11.9 °C 1008.4 hPa West 19.3 km/h 19.3 km/h 94 % 0.0 mm
11:47 12.9 °C 12.0 °C 1008.7 hPa WSW 9.7 km/h 20.9 km/h 94 % 0.3 mm
11:52 12.9 °C 12.0 °C 1008.7 hPa West 9.7 km/h 20.9 km/h 94 % 0.3 mm
11:57 12.9 °C 12.0 °C 1008.7 hPa WSW 9.7 km/h 20.9 km/h 94 % 0.5 mm
12:02 13.0 °C 11.9 °C 1008.7 hPa West 9.7 km/h 20.9 km/h 93 % 0.5 mm
12:12 13.4 °C 12.1 °C 1008.7 hPa West 14.5 km/h 20.9 km/h 92 % 0.5 mm
12:17 13.4 °C 12.0 °C 1008.7 hPa WSW 9.7 km/h 24.1 km/h 91 % 0.5 mm
12:22 13.5 °C 12.2 °C 1008.7 hPa SW 3.2 km/h 24.1 km/h 92 % 0.5 mm
12:32 13.3 °C 12.0 °C 1008.7 hPa WSW 6.4 km/h 22.5 km/h 92 % 0.5 mm
12:42 13.3 °C 12.2 °C 1008.7 hPa WSW 11.3 km/h 24.1 km/h 93 % 0.8 mm
12:47 13.6 °C 12.5 °C 1008.7 hPa SW 6.4 km/h 24.1 km/h 93 % 0.5 mm
12:52 13.9 °C 12.5 °C 1008.7 hPa WSW 17.7 km/h 20.9 km/h 91 % 0.5 mm
12:57 14.0 °C 12.2 °C 1009.0 hPa SW 9.7 km/h 27.4 km/h 89 % 0.5 mm
13:02 14.0 °C 12.4 °C 1009.0 hPa SW 14.5 km/h 30.6 km/h 90 % 0.5 mm
13:07 13.8 °C 12.2 °C 1009.0 hPa West 16.1 km/h 30.6 km/h 90 % 0.5 mm
13:12 13.7 °C 12.3 °C 1009.0 hPa SW 9.7 km/h 30.6 km/h 91 % 0.5 mm
13:17 13.6 °C 12.3 °C 1009.0 hPa SSW 6.4 km/h 24.1 km/h 92 % 0.5 mm
13:22 13.5 °C 12.2 °C 1009.4 hPa West 4.8 km/h 24.1 km/h 92 % 0.5 mm
13:27 13.3 °C 11.9 °C 1009.0 hPa WSW 25.7 km/h 25.7 km/h 91 % 0.8 mm
13:32 13.4 °C 12.0 °C 1009.4 hPa West 16.1 km/h 37.0 km/h 91 % 0.5 mm
13:37 13.7 °C 12.1 °C 1009.4 hPa WNW 16.1 km/h 37.0 km/h 90 % 0.5 mm
13:42 13.8 °C 12.0 °C 1009.4 hPa WSW 6.4 km/h 37.0 km/h 89 % 0.5 mm
13:47 13.9 °C 12.1 °C 1009.4 hPa WSW 12.9 km/h 25.7 km/h 89 % 0.5 mm
13:52 13.9 °C 12.1 °C 1009.4 hPa SW 17.7 km/h 25.7 km/h 89 % 0.5 mm
13:57 13.8 °C 12.0 °C 1009.4 hPa West 11.3 km/h 25.7 km/h 89 % 0.5 mm
14:02 13.9 °C 11.8 °C 1009.4 hPa West 17.7 km/h 37.0 km/h 87 % 0.5 mm
14:07 13.9 °C 11.6 °C 1009.7 hPa WSW 12.9 km/h 38.6 km/h 86 % 0.5 mm
14:12 14.1 °C 11.6 °C 1009.7 hPa WSW 29.0 km/h 38.6 km/h 85 % 0.3 mm
14:17 14.0 °C 11.3 °C 1009.7 hPa WSW 17.7 km/h 38.6 km/h 84 % 0.3 mm
14:22 14.1 °C 11.6 °C 1009.7 hPa WSW 11.3 km/h 37.0 km/h 85 % 0.3 mm
14:27 14.2 °C 11.7 °C 1009.7 hPa West 22.5 km/h 35.4 km/h 85 % 0.0 mm
14:32 14.2 °C 11.4 °C 1010.0 hPa SW 20.9 km/h 33.8 km/h 83 % 0.0 mm
14:37 14.2 °C 11.0 °C 1010.0 hPa WNW 16.1 km/h 32.2 km/h 81 % 0.0 mm
14:42 14.3 °C 11.1 °C 1010.4 hPa WNW 16.1 km/h 32.2 km/h 81 % 0.0 mm
14:47 14.4 °C 11.0 °C 1010.4 hPa West 30.6 km/h 32.2 km/h 80 % 0.0 mm
14:52 14.4 °C 11.0 °C 1010.4 hPa West 14.5 km/h 30.6 km/h 80 % 0.0 mm
14:57 14.5 °C 10.7 °C 1010.4 hPa WNW 12.9 km/h 37.0 km/h 78 % 0.0 mm
15:02 14.7 °C 10.5 °C 1010.4 hPa West 30.6 km/h 41.8 km/h 76 % 0.0 mm
15:07 14.8 °C 10.6 °C 1010.4 hPa WSW 27.4 km/h 41.8 km/h 76 % 0.0 mm
15:12 14.8 °C 10.6 °C 1010.4 hPa WSW 19.3 km/h 35.4 km/h 76 % 0.0 mm
15:17 14.9 °C 10.5 °C 1010.7 hPa WNW 9.7 km/h 35.4 km/h 75 % 0.0 mm
15:22 14.9 °C 10.5 °C 1010.4 hPa West 30.6 km/h 35.4 km/h 75 % 0.0 mm
15:32 15.1 °C 11.3 °C 1010.7 hPa SSW 12.9 km/h 37.0 km/h 78 % 0.0 mm
15:37 15.2 °C 11.4 °C 1011.1 hPa WSW 6.4 km/h 32.2 km/h 78 % 0.0 mm
15:42 15.3 °C 11.3 °C 1011.1 hPa SW 19.3 km/h 25.7 km/h 77 % 0.0 mm
15:47 15.3 °C 10.7 °C 1011.1 hPa WSW 20.9 km/h 30.6 km/h 74 % 0.0 mm
15:52 15.3 °C 10.5 °C 1011.1 hPa WNW 25.7 km/h 32.2 km/h 73 % 0.0 mm
15:57 15.1 °C 10.7 °C 1011.4 hPa WSW 9.7 km/h 35.4 km/h 75 % 0.0 mm
16:02 14.9 °C 10.3 °C 1011.1 hPa WSW 14.5 km/h 35.4 km/h 74 % 0.0 mm
16:07 15.0 °C 10.6 °C 1011.1 hPa West 16.1 km/h 35.4 km/h 75 % 0.0 mm
16:12 15.2 °C 10.6 °C 1011.1 hPa West 8.0 km/h 35.4 km/h 74 % 0.0 mm
16:17 15.3 °C 10.5 °C 1011.1 hPa West 19.3 km/h 32.2 km/h 73 % 0.0 mm
16:22 15.4 °C 10.8 °C 1011.4 hPa SW 9.7 km/h 37.0 km/h 74 % 0.0 mm
16:32 15.7 °C 10.5 °C 1011.4 hPa WSW 16.1 km/h 37.0 km/h 71 % 0.0 mm
16:37 15.7 °C 10.5 °C 1011.4 hPa WNW 14.5 km/h 35.4 km/h 71 % 0.0 mm
16:42 15.7 °C 10.5 °C 1011.4 hPa West 12.9 km/h 32.2 km/h 71 % 0.0 mm
16:47 15.4 °C 10.2 °C 1011.4 hPa West 17.7 km/h 32.2 km/h 71 % 0.0 mm
16:57 15.1 °C 10.7 °C 1011.7 hPa WSW 9.7 km/h 32.2 km/h 75 % 0.0 mm
17:02 14.9 °C 10.7 °C 1011.7 hPa West 9.7 km/h 30.6 km/h 76 % 0.0 mm
17:07 14.7 °C 10.9 °C 1011.7 hPa West 19.3 km/h 25.7 km/h 78 % 0.0 mm
17:12 14.3 °C 10.9 °C 1011.7 hPa WSW 19.3 km/h 27.4 km/h 80 % 0.0 mm
17:17 14.1 °C 10.9 °C 1011.7 hPa West 9.7 km/h 27.4 km/h 81 % 0.0 mm
17:22 14.2 °C 11.2 °C 1011.7 hPa SW 8.0 km/h 25.7 km/h 82 % 0.3 mm
17:27 14.2 °C 11.2 °C 1011.7 hPa West 12.9 km/h 25.7 km/h 82 % 0.3 mm
17:32 14.3 °C 11.1 °C 1012.1 hPa WSW 17.7 km/h 27.4 km/h 81 % 0.3 mm
17:42 14.3 °C 10.9 °C 1011.7 hPa West 17.7 km/h 27.4 km/h 80 % 0.3 mm
17:52 14.3 °C 10.7 °C 1012.1 hPa WSW 17.7 km/h 27.4 km/h 79 % 0.3 mm
17:57 14.3 °C 10.5 °C 1012.1 hPa WSW 25.7 km/h 32.2 km/h 78 % 0.3 mm
18:02 14.2 °C 10.6 °C 1012.1 hPa SW 20.9 km/h 33.8 km/h 79 % 0.3 mm
18:07 14.2 °C 10.6 °C 1012.1 hPa SW 9.7 km/h 33.8 km/h 79 % 0.3 mm
18:17 14.0 °C 10.4 °C 1012.1 hPa SW 6.4 km/h 33.8 km/h 79 % 0.0 mm
18:22 13.9 °C 10.3 °C 1012.1 hPa SW 8.0 km/h 27.4 km/h 79 % 0.3 mm
18:32 13.9 °C 10.5 °C 1012.4 hPa WSW 6.4 km/h 24.1 km/h 80 % 0.3 mm
18:42 14.0 °C 10.4 °C 1012.4 hPa WSW 8.0 km/h 24.1 km/h 79 % 0.3 mm
18:47 14.1 °C 10.5 °C 1012.4 hPa SW 16.1 km/h 24.1 km/h 79 % 0.3 mm
18:52 14.2 °C 10.6 °C 1012.4 hPa WSW 11.3 km/h 24.1 km/h 79 % 0.3 mm
18:57 14.3 °C 10.5 °C 1012.4 hPa WSW 11.3 km/h 25.7 km/h 78 % 0.3 mm
19:02 14.3 °C 10.3 °C 1012.4 hPa West 22.5 km/h 25.7 km/h 77 % 0.3 mm
19:07 14.4 °C 10.4 °C 1012.4 hPa WSW 16.1 km/h 29.0 km/h 77 % 0.3 mm
19:12 14.4 °C 10.4 °C 1012.4 hPa WSW 11.3 km/h 29.0 km/h 77 % 0.3 mm
19:17 14.4 °C 10.4 °C 1012.8 hPa WSW 12.9 km/h 29.0 km/h 77 % 0.3 mm
19:22 14.4 °C 10.4 °C 1012.4 hPa WNW 8.0 km/h 22.5 km/h 77 % 0.0 mm
19:27 14.4 °C 10.6 °C 1012.8 hPa WSW 8.0 km/h 19.3 km/h 78 % 0.0 mm
19:32 14.4 °C 10.6 °C 1012.8 hPa WSW 11.3 km/h 19.3 km/h 78 % 0.0 mm
19:37 14.4 °C 10.8 °C 1012.8 hPa WSW 9.7 km/h 19.3 km/h 79 % 0.0 mm
19:42 14.3 °C 10.7 °C 1012.8 hPa SW 6.4 km/h 19.3 km/h 79 % 0.0 mm
19:47 14.3 °C 10.7 °C 1012.8 hPa West 8.0 km/h 19.3 km/h 79 % 0.0 mm
19:52 14.4 °C 10.6 °C 1012.8 hPa WSW 6.4 km/h 16.1 km/h 78 % 0.0 mm
19:57 14.4 °C 10.6 °C 1012.8 hPa WSW 9.7 km/h 16.1 km/h 78 % 0.0 mm
20:02 14.4 °C 10.6 °C 1012.8 hPa SW 4.8 km/h 17.7 km/h 78 % 0.0 mm
20:07 14.5 °C 10.5 °C 1013.1 hPa WSW 6.4 km/h 19.3 km/h 77 % 0.0 mm
20:12 14.4 °C 10.2 °C 1013.1 hPa WSW 6.4 km/h 20.9 km/h 76 % 0.0 mm
20:17 14.5 °C 10.3 °C 1013.1 hPa WSW 17.7 km/h 20.9 km/h 76 % 0.0 mm
20:22 14.4 °C 10.2 °C 1013.1 hPa WSW 9.7 km/h 20.9 km/h 76 % 0.0 mm
20:27 14.4 °C 10.0 °C 1013.1 hPa West 17.7 km/h 22.5 km/h 75 % 0.0 mm
20:32 14.4 °C 10.0 °C 1013.1 hPa West 9.7 km/h 22.5 km/h 75 % 0.0 mm
20:37 14.4 °C 10.2 °C 1013.4 hPa SW 9.7 km/h 22.5 km/h 76 % 0.0 mm
20:42 14.4 °C 10.2 °C 1013.4 hPa SW 12.9 km/h 22.5 km/h 76 % 0.0 mm
20:47 14.3 °C 10.1 °C 1013.4 hPa WSW 9.7 km/h 19.3 km/h 76 % 0.0 mm
20:52 14.3 °C 10.1 °C 1013.8 hPa WSW 8.0 km/h 20.9 km/h 76 % 0.0 mm
20:57 14.3 °C 10.3 °C 1013.8 hPa SSW 8.0 km/h 20.9 km/h 77 % 0.0 mm
21:02 14.2 °C 10.2 °C 1013.8 hPa SW 11.3 km/h 19.3 km/h 77 % 0.0 mm
21:07 14.2 °C 10.4 °C 1013.8 hPa West 11.3 km/h 19.3 km/h 78 % 0.0 mm
21:12 14.2 °C 10.4 °C 1013.8 hPa SW 16.1 km/h 20.9 km/h 78 % 0.0 mm
21:17 14.1 °C 10.5 °C 1013.8 hPa SW 20.9 km/h 20.9 km/h 79 % 0.0 mm
21:27 14.0 °C 10.6 °C 1014.1 hPa SW 12.9 km/h 27.4 km/h 80 % 0.0 mm
21:32 13.9 °C 10.5 °C 1014.1 hPa SW 16.1 km/h 37.0 km/h 80 % 0.0 mm
21:37 13.8 °C 10.4 °C 1014.1 hPa SW 17.7 km/h 37.0 km/h 80 % 0.0 mm
21:42 13.7 °C 10.3 °C 1014.1 hPa WSW 19.3 km/h 37.0 km/h 80 % 0.0 mm
21:47 13.7 °C 10.5 °C 1014.4 hPa West 20.9 km/h 30.6 km/h 81 % 0.0 mm
21:52 13.6 °C 10.4 °C 1014.4 hPa SW 16.1 km/h 30.6 km/h 81 % 0.0 mm
22:02 13.4 °C 10.4 °C 1014.4 hPa West 9.7 km/h 30.6 km/h 82 % 0.0 mm
22:07 13.4 °C 10.6 °C 1014.4 hPa West 9.7 km/h 30.6 km/h 83 % 0.0 mm
22:12 13.3 °C 10.5 °C 1014.4 hPa West 12.9 km/h 30.6 km/h 83 % 0.0 mm
22:17 13.2 °C 10.4 °C 1014.4 hPa WSW 9.7 km/h 27.4 km/h 83 % 0.0 mm
22:22 13.1 °C 10.5 °C 1014.8 hPa SW 8.0 km/h 24.1 km/h 84 % 0.0 mm
22:27 13.0 °C 10.4 °C 1014.8 hPa SW 19.3 km/h 25.7 km/h 84 % 0.0 mm
22:32 12.9 °C 10.4 °C 1014.8 hPa SW 12.9 km/h 25.7 km/h 85 % 0.0 mm
22:37 12.8 °C 10.5 °C 1015.1 hPa SSW 12.9 km/h 25.7 km/h 86 % 0.0 mm
22:42 12.7 °C 10.4 °C 1015.1 hPa West 8.0 km/h 24.1 km/h 86 % 0.0 mm
22:47 12.7 °C 10.4 °C 1015.1 hPa WSW 12.9 km/h 25.7 km/h 86 % 0.0 mm
22:52 12.7 °C 10.4 °C 1015.1 hPa SW 11.3 km/h 30.6 km/h 86 % 0.0 mm
22:57 12.7 °C 10.4 °C 1015.5 hPa WSW 22.5 km/h 37.0 km/h 86 % 0.0 mm
23:07 12.6 °C 10.5 °C 1015.5 hPa West 16.1 km/h 37.0 km/h 87 % 0.0 mm
23:12 12.5 °C 10.4 °C 1015.5 hPa WSW 20.9 km/h 29.0 km/h 87 % 0.0 mm
23:17 12.4 °C 10.5 °C 1015.5 hPa WSW 22.5 km/h 25.7 km/h 88 % 0.0 mm
23:22 12.4 °C 10.5 °C 1015.5 hPa WSW 19.3 km/h 29.0 km/h 88 % 0.0 mm
23:32 12.4 °C 10.5 °C 1015.5 hPa West 11.3 km/h 30.6 km/h 88 % 0.0 mm
23:37 12.3 °C 10.4 °C 1015.5 hPa West 11.3 km/h 29.0 km/h 88 % 0.0 mm
23:42 12.3 °C 10.5 °C 1015.5 hPa WSW 17.7 km/h 29.0 km/h 89 % 0.0 mm
23:47 12.3 °C 10.5 °C 1015.5 hPa SW 9.7 km/h 29.0 km/h 89 % 0.0 mm
23:52 12.3 °C 10.5 °C 1015.8 hPa WNW 14.5 km/h 32.2 km/h 89 % 0.0 mm
23:57 12.3 °C 10.5 °C 1015.8 hPa WSW 8.0 km/h 32.2 km/h 89 % 0.0 mm
Meteo18
Compliments of Weather Underground - 4 mb

Script developed by  Jim McMurry - jmcmurry@mwt.net Adapted for the template by  Wim van der Kuil - Leuven-Template.eu

You find our weather info also at:

European Weather Network

Weather Underground

Equipment we use:

Weather-station
Davis Vue

Weather-program
Meteohub

Weather-server
Raspberry PI 2 B+

Provider
1 and 1

Davis Vue

Meteohub

Raspberry PI 2 B+

1 and 1